sensor_id;sensor_type;location;lat;lon;timestamp;pressure;altitude;pressure_sealevel;temperature;humidity
71194;BME280;58903;47.210;8.618;2023-07-20T00:00:31;94223.25;;;30.79;34.20
71194;BME280;58903;47.210;8.618;2023-07-20T00:03:14;94211.38;;;30.79;34.35
71194;BME280;58903;47.210;8.618;2023-07-20T00:06:03;94210.44;;;30.76;34.28
71194;BME280;58903;47.210;8.618;2023-07-20T00:08:31;94220.28;;;30.77;35.19
71194;BME280;58903;47.210;8.618;2023-07-20T00:11:05;94211.75;;;30.75;34.80
71194;BME280;58903;47.210;8.618;2023-07-20T00:13:31;94215.06;;;30.74;34.03
71194;BME280;58903;47.210;8.618;2023-07-20T00:16:00;94224.31;;;30.76;34.09
71194;BME280;58903;47.210;8.618;2023-07-20T00:18:46;94214.72;;;30.77;34.86
71194;BME280;58903;47.210;8.618;2023-07-20T00:21:23;94216.19;;;30.78;34.69
71194;BME280;58903;47.210;8.618;2023-07-20T00:23:58;94211.00;;;30.75;34.15
71194;BME280;58903;47.210;8.618;2023-07-20T00:26:34;94212.47;;;30.76;34.33
71194;BME280;58903;47.210;8.618;2023-07-20T00:29:02;94208.78;;;30.73;34.99
71194;BME280;58903;47.210;8.618;2023-07-20T00:31:33;94215.81;;;30.74;34.07
71194;BME280;58903;47.210;8.618;2023-07-20T00:34:04;94222.66;;;30.73;34.27
71194;BME280;58903;47.210;8.618;2023-07-20T00:37:08;94218.59;;;30.74;34.84
71194;BME280;58903;47.210;8.618;2023-07-20T00:39:45;94221.72;;;30.71;34.12
71194;BME280;58903;47.210;8.618;2023-07-20T00:42:13;94214.28;;;30.66;33.94
71194;BME280;58903;47.210;8.618;2023-07-20T00:44:49;94210.63;;;30.71;34.05
71194;BME280;58903;47.210;8.618;2023-07-20T00:47:15;94208.75;;;30.66;34.71
71194;BME280;58903;47.210;8.618;2023-07-20T00:49:58;94206.16;;;30.68;33.94
71194;BME280;58903;47.210;8.618;2023-07-20T00:52:28;94204.69;;;30.67;33.71
71194;BME280;58903;47.210;8.618;2023-07-20T00:55:11;94208.19;;;30.67;34.06
71194;BME280;58903;47.210;8.618;2023-07-20T00:57:59;94208.75;;;30.66;34.37
71194;BME280;58903;47.210;8.618;2023-07-20T01:00:44;94213.53;;;30.65;34.52
71194;BME280;58903;47.210;8.618;2023-07-20T01:03:10;94205.97;;;30.66;33.83
71194;BME280;58903;47.210;8.618;2023-07-20T01:08:46;94215.56;;;30.65;34.39
71194;BME280;58903;47.210;8.618;2023-07-20T01:15:06;94214.09;;;30.64;34.23
71194;BME280;58903;47.210;8.618;2023-07-20T01:17:36;94214.09;;;30.64;33.56
71194;BME280;58903;47.210;8.618;2023-07-20T01:20:02;94217.44;;;30.62;33.39
71194;BME280;58903;47.210;8.618;2023-07-20T01:28:15;94218.72;;;30.61;34.02
71194;BME280;58903;47.210;8.618;2023-07-20T01:34:37;94217.78;;;30.59;33.72
71194;BME280;58903;47.210;8.618;2023-07-20T01:37:07;94217.25;;;30.60;33.48
71194;BME280;58903;47.210;8.618;2023-07-20T01:39:47;94210.19;;;30.59;33.17
71194;BME280;58903;47.210;8.618;2023-07-20T01:42:13;94206.47;;;30.57;34.11
71194;BME280;58903;47.210;8.618;2023-07-20T01:44:44;94203.50;;;30.54;33.38
71194;BME280;58903;47.210;8.618;2023-07-20T01:47:14;94206.09;;;30.52;33.74
71194;BME280;58903;47.210;8.618;2023-07-20T01:49:49;94207.94;;;30.50;33.41
71194;BME280;58903;47.210;8.618;2023-07-20T01:52:35;94206.09;;;30.52;33.99
71194;BME280;58903;47.210;8.618;2023-07-20T01:55:11;94205.34;;;30.52;33.16
71194;BME280;58903;47.210;8.618;2023-07-20T01:57:55;94203.88;;;30.51;34.16
71194;BME280;58903;47.210;8.618;2023-07-20T02:00:21;94199.41;;;30.48;33.14
71194;BME280;58903;47.210;8.618;2023-07-20T02:02:52;94202.94;;;30.48;33.84
71194;BME280;58903;47.210;8.618;2023-07-20T02:05:19;94202.19;;;30.48;34.04
71194;BME280;58903;47.210;8.618;2023-07-20T02:07:58;94209.03;;;30.47;33.65
71194;BME280;58903;47.210;8.618;2023-07-20T02:10:47;94206.78;;;30.45;33.14
71194;BME280;58903;47.210;8.618;2023-07-20T02:13:16;94204.75;;;30.46;33.02
71194;BME280;58903;47.210;8.618;2023-07-20T02:16:04;94206.78;;;30.45;33.92
71194;BME280;58903;47.210;8.618;2023-07-20T02:18:32;94205.50;;;30.46;33.43
71194;BME280;58903;47.210;8.618;2023-07-20T02:21:05;94200.50;;;30.45;33.52
71194;BME280;58903;47.210;8.618;2023-07-20T02:23:35;94205.31;;;30.44;33.44
71194;BME280;58903;47.210;8.618;2023-07-20T02:26:17;94209.38;;;30.43;33.49
71194;BME280;58903;47.210;8.618;2023-07-20T02:28:44;94205.31;;;30.44;34.05
71194;BME280;58903;47.210;8.618;2023-07-20T02:31:13;94205.31;;;30.44;33.03
71194;BME280;58903;47.210;8.618;2023-07-20T02:33:39;94203.81;;;30.43;33.93
71194;BME280;58903;47.210;8.618;2023-07-20T02:36:07;94200.84;;;30.41;34.28
71194;BME280;58903;47.210;8.618;2023-07-20T02:38:33;94211.00;;;30.39;33.26
71194;BME280;58903;47.210;8.618;2023-07-20T02:40:59;94212.50;;;30.40;33.28
71194;BME280;58903;47.210;8.618;2023-07-20T02:43:25;94213.25;;;30.40;33.65
71194;BME280;58903;47.210;8.618;2023-07-20T02:46:20;94217.50;;;30.41;33.25
71194;BME280;58903;47.210;8.618;2023-07-20T02:48:58;94211.75;;;30.39;33.68
71194;BME280;58903;47.210;8.618;2023-07-20T02:51:32;94211.75;;;30.39;33.84
71194;BME280;58903;47.210;8.618;2023-07-20T02:54:00;94210.06;;;30.36;34.28
71194;BME280;58903;47.210;8.618;2023-07-20T02:56:31;94216.38;;;30.37;34.17
71194;BME280;58903;47.210;8.618;2023-07-20T02:59:06;94214.16;;;30.35;34.34
71194;BME280;58903;47.210;8.618;2023-07-20T03:01:45;94215.63;;;30.36;33.12
71194;BME280;58903;47.210;8.618;2023-07-20T03:04:48;94212.84;;;30.36;34.30
71194;BME280;58903;47.210;8.618;2023-07-20T03:07:35;94208.78;;;30.37;33.00
71194;BME280;58903;47.210;8.618;2023-07-20T03:10:02;94212.84;;;30.36;33.64
71194;BME280;58903;47.210;8.618;2023-07-20T03:12:40;94204.53;;;30.36;33.42
71194;BME280;58903;47.210;8.618;2023-07-20T03:15:16;94214.34;;;30.37;32.96
71194;BME280;58903;47.210;8.618;2023-07-20T03:18:08;94216.94;;;30.35;33.33
71194;BME280;58903;47.210;8.618;2023-07-20T03:20:43;94213.97;;;30.33;34.32
71194;BME280;58903;47.210;8.618;2023-07-20T03:23:28;94206.38;;;30.34;32.99
71194;BME280;58903;47.210;8.618;2023-07-20T03:25:57;94209.88;;;30.34;33.19
71194;BME280;58903;47.210;8.618;2023-07-20T03:28:25;94208.78;;;30.37;34.18
71194;BME280;58903;47.210;8.618;2023-07-20T03:30:56;94219.69;;;30.35;34.09
71194;BME280;58903;47.210;8.618;2023-07-20T03:33:25;94214.91;;;30.36;33.48
71194;BME280;58903;47.210;8.618;2023-07-20T03:35:56;94205.63;;;30.33;33.83
71194;BME280;58903;47.210;8.618;2023-07-20T03:38:42;94216.94;;;30.35;34.05
71194;BME280;58903;47.210;8.618;2023-07-20T03:41:45;94212.13;;;30.36;33.07
71194;BME280;58903;47.210;8.618;2023-07-20T03:44:30;94211.19;;;30.33;33.59
71194;BME280;58903;47.210;8.618;2023-07-20T03:47:16;94213.75;;;30.31;34.17
71194;BME280;58903;47.210;8.618;2023-07-20T03:49:52;94210.75;;;30.29;33.88
71194;BME280;58903;47.210;8.618;2023-07-20T03:52:18;94202.97;;;30.28;33.59
71194;BME280;58903;47.210;8.618;2023-07-20T03:54:57;94207.78;;;30.27;33.31
71194;BME280;58903;47.210;8.618;2023-07-20T03:57:44;94205.22;;;30.29;33.32
71194;BME280;58903;47.210;8.618;2023-07-20T04:00:11;94198.16;;;30.28;34.30
71194;BME280;58903;47.210;8.618;2023-07-20T04:02:57;94206.69;;;30.30;33.96
71194;BME280;58903;47.210;8.618;2023-07-20T04:05:47;94205.94;;;30.30;33.84
71194;BME280;58903;47.210;8.618;2023-07-20T04:08:36;94212.22;;;30.30;33.28
71194;BME280;58903;47.210;8.618;2023-07-20T04:11:15;94208.50;;;30.28;34.01
71194;BME280;58903;47.210;8.618;2023-07-20T04:13:45;94210.00;;;30.29;33.31
71194;BME280;58903;47.210;8.618;2023-07-20T04:16:21;94216.13;;;30.27;33.41
71194;BME280;58903;47.210;8.618;2023-07-20T04:18:47;94216.31;;;30.29;33.47
71194;BME280;58903;47.210;8.618;2023-07-20T04:21:16;94217.78;;;30.30;33.40
71194;BME280;58903;47.210;8.618;2023-07-20T04:23:50;94218.91;;;30.27;33.54
71194;BME280;58903;47.210;8.618;2023-07-20T04:26:27;94212.41;;;30.25;33.89
71194;BME280;58903;47.210;8.618;2023-07-20T04:29:12;94220.38;;;30.28;34.19
71194;BME280;58903;47.210;8.618;2023-07-20T04:31:41;94220.16;;;30.26;33.46
71194;BME280;58903;47.210;8.618;2023-07-20T04:34:38;94217.41;;;30.26;34.08
71194;BME280;58903;47.210;8.618;2023-07-20T04:37:06;94218.69;;;30.25;34.28
71194;BME280;58903;47.210;8.618;2023-07-20T04:39:33;94215.94;;;30.25;33.40
71194;BME280;58903;47.210;8.618;2023-07-20T04:42:05;94207.94;;;30.22;34.33
71194;BME280;58903;47.210;8.618;2023-07-20T04:45:08;94227.03;;;30.25;33.52
71194;BME280;58903;47.210;8.618;2023-07-20T04:47:48;94209.44;;;30.23;33.84
71194;BME280;58903;47.210;8.618;2023-07-20T04:50:31;94223.31;;;30.23;33.46
71194;BME280;58903;47.210;8.618;2023-07-20T04:53:09;94219.03;;;30.22;34.17
71194;BME280;58903;47.210;8.618;2023-07-20T04:55:48;94216.81;;;30.20;34.28
71194;BME280;58903;47.210;8.618;2023-07-20T04:58:24;94228.09;;;30.22;34.24
71194;BME280;58903;47.210;8.618;2023-07-20T05:01:06;94211.81;;;30.19;33.67
71194;BME280;58903;47.210;8.618;2023-07-20T05:03:31;94226.41;;;30.19;34.36
71194;BME280;58903;47.210;8.618;2023-07-20T05:06:18;94219.91;;;30.17;33.86
71194;BME280;58903;47.210;8.618;2023-07-20T05:08:53;94218.44;;;30.16;34.05
71194;BME280;58903;47.210;8.618;2023-07-20T05:11:28;94224.53;;;30.14;33.83
71194;BME280;58903;47.210;8.618;2023-07-20T05:14:02;94221.91;;;30.09;34.14
71194;BME280;58903;47.210;8.618;2023-07-20T05:16:31;94224.28;;;30.05;34.40
71194;BME280;58903;47.210;8.618;2023-07-20T05:18:59;94210.97;;;30.03;34.74
71194;BME280;58903;47.210;8.618;2023-07-20T05:21:36;94213.94;;;30.05;33.85
71194;BME280;58903;47.210;8.618;2023-07-20T05:24:02;94214.34;;;30.09;34.32
71194;BME280;58903;47.210;8.618;2023-07-20T05:28:59;94222.09;;;30.11;33.72
71194;BME280;58903;47.210;8.618;2023-07-20T05:31:26;94219.88;;;30.09;34.42
71194;BME280;58903;47.210;8.618;2023-07-20T05:33:55;94216.56;;;30.11;33.59
71194;BME280;58903;47.210;8.618;2023-07-20T05:36:22;94214.34;;;30.09;33.95
71194;BME280;58903;47.210;8.618;2023-07-20T05:38:55;94212.31;;;30.10;33.83
71194;BME280;58903;47.210;8.618;2023-07-20T05:42:00;94215.41;;;30.06;33.94
71194;BME280;58903;47.210;8.618;2023-07-20T05:44:26;94208.72;;;30.02;34.67
71194;BME280;58903;47.210;8.618;2023-07-20T05:46:53;94220.97;;;30.06;34.45
71194;BME280;58903;47.210;8.618;2023-07-20T05:49:20;94215.03;;;30.02;34.74
71194;BME280;58903;47.210;8.618;2023-07-20T05:51:46;94212.44;;;30.04;34.37
71194;BME280;58903;47.210;8.618;2023-07-20T05:54:14;94219.50;;;30.05;33.92
71194;BME280;58903;47.210;8.618;2023-07-20T05:56:45;94208.41;;;30.05;33.97
71194;BME280;58903;47.210;8.618;2023-07-20T05:59:13;94208.41;;;30.05;34.69
71194;BME280;58903;47.210;8.618;2023-07-20T06:01:42;94214.13;;;30.07;33.63
71194;BME280;58903;47.210;8.618;2023-07-20T06:04:08;94216.72;;;30.05;34.52
71194;BME280;58903;47.210;8.618;2023-07-20T06:07:08;94211.16;;;30.05;33.43
71194;BME280;58903;47.210;8.618;2023-07-20T06:09:35;94216.31;;;30.01;34.61
71194;BME280;58903;47.210;8.618;2023-07-20T06:12:02;94214.81;;;30.00;34.51
71194;BME280;58903;47.210;8.618;2023-07-20T06:14:28;94208.41;;;30.05;34.45
71194;BME280;58903;47.210;8.618;2023-07-20T06:16:54;94216.72;;;30.05;33.77
71194;BME280;58903;47.210;8.618;2023-07-20T06:19:22;94216.53;;;30.03;33.82
71194;BME280;58903;47.210;8.618;2023-07-20T06:21:51;94215.41;;;30.06;34.66
71194;BME280;58903;47.210;8.618;2023-07-20T06:24:17;94208.41;;;30.05;33.50
71194;BME280;58903;47.210;8.618;2023-07-20T06:26:44;94216.53;;;30.03;33.57
71194;BME280;58903;47.210;8.618;2023-07-20T06:29:12;94208.53;;;30.00;34.16
71194;BME280;58903;47.210;8.618;2023-07-20T06:31:40;94210.03;;;30.01;34.01
71194;BME280;58903;47.210;8.618;2023-07-20T06:34:09;94209.63;;;29.97;33.74
71194;BME280;58903;47.210;8.618;2023-07-20T06:36:39;94202.03;;;29.97;34.03
71194;BME280;58903;47.210;8.618;2023-07-20T06:39:21;94208.53;;;30.00;34.36
71194;BME280;58903;47.210;8.618;2023-07-20T06:41:49;94197.78;;;29.96;33.18
71194;BME280;58903;47.210;8.618;2023-07-20T06:44:22;94200.56;;;29.96;33.68
71194;BME280;58903;47.210;8.618;2023-07-20T06:46:52;94207.59;;;29.97;33.54
71194;BME280;58903;47.210;8.618;2023-07-20T06:49:27;94211.31;;;30.00;33.08
71194;BME280;58903;47.210;8.618;2023-07-20T06:52:00;94204.59;;;29.95;33.15
71194;BME280;58903;47.210;8.618;2023-07-20T06:54:32;94207.59;;;29.97;34.35
71194;BME280;58903;47.210;8.618;2023-07-20T06:56:58;94208.13;;;29.96;34.29
71194;BME280;58903;47.210;8.618;2023-07-20T06:59:35;94204.59;;;29.95;33.18
71194;BME280;58903;47.210;8.618;2023-07-20T07:02:34;94207.59;;;29.97;32.90
71194;BME280;58903;47.210;8.618;2023-07-20T07:05:01;94210.34;;;29.97;32.94
71194;BME280;58903;47.210;8.618;2023-07-20T07:07:27;94213.47;;;29.94;33.35
71194;BME280;58903;47.210;8.618;2023-07-20T07:09:55;94211.78;;;29.91;33.02
71194;BME280;58903;47.210;8.618;2023-07-20T07:12:21;94216.06;;;29.92;33.86
71194;BME280;58903;47.210;8.618;2023-07-20T07:15:05;94201.84;;;29.95;33.19
71194;BME280;58903;47.210;8.618;2023-07-20T07:17:34;94207.38;;;29.95;32.98
71194;BME280;58903;47.210;8.618;2023-07-20T07:20:03;94206.47;;;29.93;33.36
71194;BME280;58903;47.210;8.618;2023-07-20T07:23:08;94205.34;;;29.96;34.15
71194;BME280;58903;47.210;8.618;2023-07-20T07:25:34;94200.16;;;29.92;33.92
71194;BME280;58903;47.210;8.618;2023-07-20T07:28:19;94203.13;;;29.94;32.73
71194;BME280;58903;47.210;8.618;2023-07-20T07:31:28;94207.38;;;29.95;32.64
71194;BME280;58903;47.210;8.618;2023-07-20T07:34:00;94204.59;;;29.95;32.90
71194;BME280;58903;47.210;8.618;2023-07-20T07:36:28;94195.03;;;29.96;33.07
71194;BME280;58903;47.210;8.618;2023-07-20T07:41:58;94210.16;;;29.95;33.32
71194;BME280;58903;47.210;8.618;2023-07-20T07:44:38;94192.03;;;29.94;33.42
71194;BME280;58903;47.210;8.618;2023-07-20T07:47:13;94200.00;;;29.98;33.18
71194;BME280;58903;47.210;8.618;2023-07-20T07:49:50;94194.47;;;29.98;32.54
71194;BME280;58903;47.210;8.618;2023-07-20T07:52:37;94196.28;;;29.95;33.30
71194;BME280;58903;47.210;8.618;2023-07-20T07:55:04;94192.25;;;29.96;33.67
71194;BME280;58903;47.210;8.618;2023-07-20T07:57:35;94193.53;;;29.95;32.89
71194;BME280;58903;47.210;8.618;2023-07-20T08:00:04;94197.78;;;29.96;32.77
71194;BME280;58903;47.210;8.618;2023-07-20T08:02:31;94201.31;;;29.97;32.85
71194;BME280;58903;47.210;8.618;2023-07-20T08:04:57;94197.97;;;29.98;33.19
71194;BME280;58903;47.210;8.618;2023-07-20T08:07:23;94195.78;;;29.97;32.36
71194;BME280;58903;47.210;8.618;2023-07-20T08:09:49;94199.47;;;29.99;32.92
71194;BME280;58903;47.210;8.618;2023-07-20T08:12:15;94194.47;;;29.98;33.67
71194;BME280;58903;47.210;8.618;2023-07-20T08:14:45;94197.97;;;29.98;33.67
71194;BME280;58903;47.210;8.618;2023-07-20T08:17:12;94193.94;;;29.99;33.32
71194;BME280;58903;47.210;8.618;2023-07-20T08:19:40;94178.56;;;29.98;33.45
71194;BME280;58903;47.210;8.618;2023-07-20T08:22:10;94178.78;;;30.00;32.59
71194;BME280;58903;47.210;8.618;2023-07-20T08:24:40;94189.13;;;30.00;32.84
71194;BME280;58903;47.210;8.618;2023-07-20T08:27:07;94189.88;;;30.00;32.31
71194;BME280;58903;47.210;8.618;2023-07-20T08:29:37;94187.66;;;29.99;32.73
71194;BME280;58903;47.210;8.618;2023-07-20T08:32:06;94192.84;;;30.02;33.17
71194;BME280;58903;47.210;8.618;2023-07-20T08:34:35;94197.63;;;30.02;33.58
71194;BME280;58903;47.210;8.618;2023-07-20T08:37:01;94190.22;;;29.97;32.57
71194;BME280;58903;47.210;8.618;2023-07-20T08:39:30;94191.88;;;30.00;33.18
71194;BME280;58903;47.210;8.618;2023-07-20T08:41:59;94195.22;;;29.98;33.17
71194;BME280;58903;47.210;8.618;2023-07-20T08:44:33;94193.19;;;29.99;33.73
71194;BME280;58903;47.210;8.618;2023-07-20T08:47:00;94191.16;;;29.99;32.39
71194;BME280;58903;47.210;8.618;2023-07-20T08:49:31;94186.16;;;29.98;32.49
71194;BME280;58903;47.210;8.618;2023-07-20T08:51:59;94181.34;;;29.98;33.33
71194;BME280;58903;47.210;8.618;2023-07-20T08:54:31;94179.84;;;29.97;33.16
71194;BME280;58903;47.210;8.618;2023-07-20T08:57:04;94175.81;;;29.98;33.22
71194;BME280;58903;47.210;8.618;2023-07-20T08:59:31;94178.03;;;30.00;32.63
71194;BME280;58903;47.210;8.618;2023-07-20T09:01:59;94166.94;;;30.00;33.04
71194;BME280;58903;47.210;8.618;2023-07-20T09:04:28;94170.81;;;29.97;32.79
71194;BME280;58903;47.210;8.618;2023-07-20T09:06:57;94186.53;;;30.02;33.61
71194;BME280;58903;47.210;8.618;2023-07-20T09:09:23;94170.44;;;30.00;33.00
71194;BME280;58903;47.210;8.618;2023-07-20T09:11:52;94176.38;;;30.04;33.41
71194;BME280;58903;47.210;8.618;2023-07-20T09:14:18;94166.59;;;30.03;32.82
71194;BME280;58903;47.210;8.618;2023-07-20T09:16:53;94174.72;;;30.01;33.37
71194;BME280;58903;47.210;8.618;2023-07-20T09:19:20;94163.63;;;30.01;32.82
71194;BME280;58903;47.210;8.618;2023-07-20T09:21:50;94164.91;;;30.00;32.99
71194;BME280;58903;47.210;8.618;2023-07-20T09:24:20;94161.56;;;30.02;33.21
71194;BME280;58903;47.210;8.618;2023-07-20T09:26:48;94169.38;;;30.03;33.74
71194;BME280;58903;47.210;8.618;2023-07-20T09:29:18;94159.56;;;30.02;33.43
71194;BME280;58903;47.210;8.618;2023-07-20T09:32:04;94152.72;;;30.03;32.92
71194;BME280;58903;47.210;8.618;2023-07-20T09:34:31;94151.22;;;30.02;32.73
71194;BME280;58903;47.210;8.618;2023-07-20T09:36:59;94152.72;;;30.03;33.86
71194;BME280;58903;47.210;8.618;2023-07-20T09:39:30;94149.94;;;30.03;33.71
71194;BME280;58903;47.210;8.618;2023-07-20T09:42:04;94135.91;;;30.01;33.02
71194;BME280;58903;47.210;8.618;2023-07-20T09:44:30;94147.38;;;30.05;32.93
71194;BME280;58903;47.210;8.618;2023-07-20T09:47:04;94150.91;;;30.06;33.40
71194;BME280;58903;47.210;8.618;2023-07-20T09:49:30;94145.34;;;30.06;33.58
71194;BME280;58903;47.210;8.618;2023-07-20T09:51:59;94150.66;;;30.04;33.86
71194;BME280;58903;47.210;8.618;2023-07-20T09:54:28;94154.38;;;30.06;33.43
71194;BME280;58903;47.210;8.618;2023-07-20T09:56:58;94148.84;;;30.06;32.90
71194;BME280;58903;47.210;8.618;2023-07-20T09:59:24;94145.53;;;30.08;33.79
71194;BME280;58903;47.210;8.618;2023-07-20T10:01:54;94142.03;;;30.07;33.40
71194;BME280;58903;47.210;8.618;2023-07-20T10:04:28;94141.66;;;30.11;34.31
71194;BME280;58903;47.210;8.618;2023-07-20T10:07:09;94138.88;;;30.11;33.70
71194;BME280;58903;47.210;8.618;2023-07-20T10:09:40;94138.34;;;30.12;34.19
71194;BME280;58903;47.210;8.618;2023-07-20T10:12:12;94137.41;;;30.10;33.91
71194;BME280;58903;47.210;8.618;2023-07-20T10:14:54;94128.16;;;30.07;34.50
71194;BME280;58903;47.210;8.618;2023-07-20T10:17:26;94133.34;;;30.11;33.92
71194;BME280;58903;47.210;8.618;2023-07-20T10:19:56;94134.09;;;30.11;34.58
71194;BME280;58903;47.210;8.618;2023-07-20T10:22:47;94130.22;;;30.14;34.66
71194;BME280;58903;47.210;8.618;2023-07-20T10:25:28;94132.25;;;30.14;34.48
71194;BME280;58903;47.210;8.618;2023-07-20T10:28:31;94130.41;;;30.16;34.76
71194;BME280;58903;47.210;8.618;2023-07-20T10:31:15;94124.31;;;30.18;34.75
71194;BME280;58903;47.210;8.618;2023-07-20T10:33:57;94120.25;;;30.19;34.31
71194;BME280;58903;47.210;8.618;2023-07-20T10:36:29;94120.78;;;30.17;34.83
71194;BME280;58903;47.210;8.618;2023-07-20T10:38:58;94116.94;;;30.20;33.92
71194;BME280;58903;47.210;8.618;2023-07-20T10:41:33;94112.66;;;30.19;34.22
71194;BME280;58903;47.210;8.618;2023-07-20T10:44:07;94116.56;;;30.16;33.64
71194;BME280;58903;47.210;8.618;2023-07-20T10:46:46;94114.84;;;30.13;34.08
71194;BME280;58903;47.210;8.618;2023-07-20T10:49:20;94109.31;;;30.13;33.81
71194;BME280;58903;47.210;8.618;2023-07-20T10:51:57;94109.69;;;30.17;33.30
71194;BME280;58903;47.210;8.618;2023-07-20T10:54:50;94107.88;;;30.20;34.49
71194;BME280;58903;47.210;8.618;2023-07-20T10:57:32;94103.44;;;30.24;33.97
71194;BME280;58903;47.210;8.618;2023-07-20T11:00:14;94094.56;;;30.26;33.49
71194;BME280;58903;47.210;8.618;2023-07-20T11:02:46;94097.16;;;30.24;34.37
71194;BME280;58903;47.210;8.618;2023-07-20T11:05:34;94091.25;;;30.27;34.55
71194;BME280;58903;47.210;8.618;2023-07-20T11:08:37;94096.81;;;30.27;33.93
71194;BME280;58903;47.210;8.618;2023-07-20T11:14:04;94091.66;;;30.31;33.98
71194;BME280;58903;47.210;8.618;2023-07-20T11:16:55;94091.66;;;30.31;34.76
71194;BME280;58903;47.210;8.618;2023-07-20T11:19:26;94086.63;;;30.30;34.09
71194;BME280;58903;47.210;8.618;2023-07-20T11:22:04;94083.66;;;30.28;35.16
71194;BME280;58903;47.210;8.618;2023-07-20T11:24:38;94085.16;;;30.29;34.51
71194;BME280;58903;47.210;8.618;2023-07-20T11:27:07;94082.94;;;30.27;34.43
71194;BME280;58903;47.210;8.618;2023-07-20T11:29:35;94085.16;;;30.29;34.78
71194;BME280;58903;47.210;8.618;2023-07-20T11:32:32;94080.16;;;30.27;34.99
71194;BME280;58903;47.210;8.618;2023-07-20T11:34:59;94083.47;;;30.26;34.95
71194;BME280;58903;47.210;8.618;2023-07-20T11:37:26;94078.84;;;30.28;34.30
71194;BME280;58903;47.210;8.618;2023-07-20T11:40:02;94076.09;;;30.28;34.41
71194;BME280;58903;47.210;8.618;2023-07-20T11:42:29;94069.47;;;30.31;34.78
71194;BME280;58903;47.210;8.618;2023-07-20T11:45:08;94078.00;;;30.33;35.15
71194;BME280;58903;47.210;8.618;2023-07-20T11:47:40;94065.38;;;30.32;35.11
71194;BME280;58903;47.210;8.618;2023-07-20T11:50:29;94065.78;;;30.36;35.18
71194;BME280;58903;47.210;8.618;2023-07-20T11:53:16;94063.00;;;30.36;34.32
71194;BME280;58903;47.210;8.618;2023-07-20T11:55:45;94060.78;;;30.35;35.41
71194;BME280;58903;47.210;8.618;2023-07-20T11:58:27;94059.31;;;30.41;34.93
71194;BME280;58903;47.210;8.618;2023-07-20T12:01:06;94053.59;;;30.39;34.17
71194;BME280;58903;47.210;8.618;2023-07-20T12:03:34;94053.75;;;30.41;34.80
71194;BME280;58903;47.210;8.618;2023-07-20T12:06:13;94049.91;;;30.44;33.46
71194;BME280;58903;47.210;8.618;2023-07-20T12:08:42;94040.28;;;30.45;33.50
71194;BME280;58903;47.210;8.618;2023-07-20T12:11:13;94035.47;;;30.46;34.19
71194;BME280;58903;47.210;8.618;2023-07-20T12:14:13;94045.47;;;30.49;33.39
71194;BME280;58903;47.210;8.618;2023-07-20T12:16:40;94038.81;;;30.52;33.38
71194;BME280;58903;47.210;8.618;2023-07-20T12:19:11;94030.66;;;30.54;34.03
71194;BME280;58903;47.210;8.618;2023-07-20T12:21:50;94036.97;;;30.54;33.43
71194;BME280;58903;47.210;8.618;2023-07-20T12:24:21;94034.56;;;30.59;33.84
71194;BME280;58903;47.210;8.618;2023-07-20T12:27:17;94033.28;;;30.60;33.84
71194;BME280;58903;47.210;8.618;2023-07-20T12:29:55;94024.75;;;30.58;34.19
71194;BME280;58903;47.210;8.618;2023-07-20T12:32:33;94027.72;;;30.60;34.22
71194;BME280;58903;47.210;8.618;2023-07-20T12:35:01;94024.00;;;30.65;34.31
71194;BME280;58903;47.210;8.618;2023-07-20T12:37:45;94017.75;;;30.64;33.90
71194;BME280;58903;47.210;8.618;2023-07-20T12:40:26;94019.22;;;30.65;34.26
71194;BME280;58903;47.210;8.618;2023-07-20T12:42:55;94020.69;;;30.66;34.03
71194;BME280;58903;47.210;8.618;2023-07-20T12:45:21;94008.84;;;30.66;34.70
71194;BME280;58903;47.210;8.618;2023-07-20T12:47:58;94008.66;;;30.71;34.21
71194;BME280;58903;47.210;8.618;2023-07-20T12:50:34;94013.50;;;30.71;33.97
71194;BME280;58903;47.210;8.618;2023-07-20T12:53:01;94016.25;;;30.71;34.12
71194;BME280;58903;47.210;8.618;2023-07-20T12:55:29;94002.38;;;30.71;34.34
71194;BME280;58903;47.210;8.618;2023-07-20T12:57:55;94003.31;;;30.73;34.32
71194;BME280;58903;47.210;8.618;2023-07-20T13:03:34;93995.16;;;30.75;34.80
71194;BME280;58903;47.210;8.618;2023-07-20T13:06:08;94001.25;;;30.74;34.04
71194;BME280;58903;47.210;8.618;2023-07-20T13:08:53;93992.75;;;30.79;34.60
71194;BME280;58903;47.210;8.618;2023-07-20T13:11:22;93985.19;;;30.80;34.00
71194;BME280;58903;47.210;8.618;2023-07-20T13:14:09;93990.34;;;30.83;34.83
71194;BME280;58903;47.210;8.618;2023-07-20T13:16:46;93993.88;;;30.84;34.65
71194;BME280;58903;47.210;8.618;2023-07-20T13:19:14;93981.84;;;30.81;34.87
71194;BME280;58903;47.210;8.618;2023-07-20T13:21:42;93992.56;;;30.85;34.54
71194;BME280;58903;47.210;8.618;2023-07-20T13:24:10;93980.94;;;30.86;34.30
71194;BME280;58903;47.210;8.618;2023-07-20T13:26:48;93976.28;;;30.89;34.38
71194;BME280;58903;47.210;8.618;2023-07-20T13:29:27;93970.75;;;30.89;34.64
71194;BME280;58903;47.210;8.618;2023-07-20T13:32:05;93980.75;;;30.92;35.24
71194;BME280;58903;47.210;8.618;2023-07-20T13:34:52;93973.91;;;30.93;35.60
71194;BME280;58903;47.210;8.618;2023-07-20T13:37:19;93977.41;;;30.93;35.00
71194;BME280;58903;47.210;8.618;2023-07-20T13:39:57;93966.88;;;30.92;34.70
71194;BME280;58903;47.210;8.618;2023-07-20T13:42:25;93962.81;;;30.93;35.51
71194;BME280;58903;47.210;8.618;2023-07-20T13:44:53;93957.25;;;30.93;35.16
71194;BME280;58903;47.210;8.618;2023-07-20T13:47:47;93961.50;;;30.94;35.65
71194;BME280;58903;47.210;8.618;2023-07-20T13:50:30;93946.13;;;30.93;35.62
71194;BME280;58903;47.210;8.618;2023-07-20T13:52:59;93943.34;;;30.93;35.62
71194;BME280;58903;47.210;8.618;2023-07-20T13:55:31;93938.69;;;30.95;35.80
71194;BME280;58903;47.210;8.618;2023-07-20T13:58:01;93947.78;;;30.96;35.59
71194;BME280;58903;47.210;8.618;2023-07-20T14:00:27;93936.28;;;30.99;35.15
71194;BME280;58903;47.210;8.618;2023-07-20T14:03:01;93936.50;;;31.01;34.95
71194;BME280;58903;47.210;8.618;2023-07-20T14:05:27;93930.38;;;31.03;35.17